Time;durP1;ratioP1;P1;durP2;ratioP2;P2;SDS_P1;SDS_P2;PMS_P1;PMS_P2;Temp;Humidity;BMP_temperature;BMP_pressure;BME280_temperature;BME280_humidity;BME280_pressure;Samples;Min_cycle;Max_cycle;Signal;HPM_P1;HPM_P2
2021/12/08 00:01:21;;;;;;;8.18;4.15;;;-3.40;99.90;;;;;;5079972;28;20392;-56
2021/12/08 00:03:50;;;;;;;12.10;4.38;;;-3.40;99.90;;;;;;5073652;28;20052;-52
2021/12/08 00:06:17;;;;;;;11.30;3.80;;;-3.40;99.90;;;;;;5073108;28;20048;-51
2021/12/08 00:08:59;;;;;;;7.63;3.95;;;-3.40;99.90;;;;;;5073299;28;20068;-52
2021/12/08 00:14:13;;;;;;;9.15;4.10;;;-3.40;99.90;;;;;;5073347;28;20136;-52
2021/12/08 00:16:40;;;;;;;7.50;3.28;;;-3.40;99.90;;;;;;5073009;28;20090;-54
2021/12/08 00:19:06;;;;;;;7.25;2.72;;;-3.30;99.90;;;;;;5073156;28;20443;-53
2021/12/08 00:21:33;;;;;;;9.27;4.07;;;-3.40;99.90;;;;;;5073045;28;20041;-52
2021/12/08 00:24:00;;;;;;;6.82;3.83;;;-3.40;99.90;;;;;;5073255;28;20048;-55
2021/12/08 00:26:27;;;;;;;7.10;2.88;;;-3.40;99.90;;;;;;5072739;28;20050;-53
2021/12/08 00:28:54;;;;;;;5.57;2.83;;;-3.40;99.90;;;;;;5073292;28;20408;-53
2021/12/08 00:31:21;;;;;;;7.28;3.10;;;-3.40;99.90;;;;;;5072757;28;20044;-52
2021/12/08 00:33:48;;;;;;;6.38;2.45;;;-3.40;99.90;;;;;;5073073;28;20063;-51
2021/12/08 00:36:17;;;;;;;3.78;2.22;;;-3.50;99.90;;;;;;5072241;28;20131;-53
2021/12/08 00:38:44;;;;;;;5.03;1.88;;;-3.50;99.90;;;;;;5072754;28;20397;-52
2021/12/08 00:41:11;;;;;;;10.82;2.33;;;-3.50;99.90;;;;;;5072858;28;20102;-54
2021/12/08 00:43:38;;;;;;;6.15;2.38;;;-3.50;99.90;;;;;;5072762;28;20098;-54
2021/12/08 00:46:05;;;;;;;2.35;1.48;;;-3.60;99.90;;;;;;5072488;28;20052;-53
2021/12/08 00:48:32;;;;;;;4.07;2.00;;;-3.50;99.90;;;;;;5072848;28;20508;-55
2021/12/08 00:50:59;;;;;;;4.75;2.45;;;-3.50;99.90;;;;;;5072699;28;20050;-52
2021/12/08 00:53:26;;;;;;;4.93;2.35;;;-3.60;99.90;;;;;;5072642;28;20496;-54
2021/12/08 00:55:52;;;;;;;6.20;2.95;;;-3.60;99.90;;;;;;5072163;28;20037;-55
2021/12/08 00:58:19;;;;;;;6.65;2.67;;;-3.60;99.90;;;;;;5072618;28;20040;-55
2021/12/08 01:00:50;;;;;;;4.97;2.60;;;-3.60;99.90;;;;;;5072674;28;20403;-52
2021/12/08 01:03:18;;;;;;;6.00;2.83;;;-3.60;99.90;;;;;;5072470;28;20049;-54
2021/12/08 01:05:55;;;;;;;7.47;2.42;;;-3.70;99.90;;;;;;5071792;28;20048;-54
2021/12/08 01:08:25;;;;;;;5.35;1.58;;;-3.60;99.90;;;;;;5072459;28;20053;-57
2021/12/08 01:10:55;;;;;;;6.18;2.15;;;-3.70;99.90;;;;;;5072100;28;20066;-55
2021/12/08 01:13:23;;;;;;;3.33;1.77;;;-3.60;99.90;;;;;;5071581;28;20040;-52
2021/12/08 01:15:53;;;;;;;6.18;2.42;;;-3.60;99.90;;;;;;5071880;28;20047;-54
2021/12/08 01:18:20;;;;;;;5.38;2.45;;;-3.60;99.90;;;;;;5072141;28;20047;-52
2021/12/08 01:20:48;;;;;;;3.45;2.10;;;-3.60;99.90;;;;;;5072291;28;20090;-53
2021/12/08 01:23:16;;;;;;;4.82;1.75;;;-3.50;99.90;;;;;;5072105;28;20106;-52
2021/12/08 01:25:43;;;;;;;4.00;1.95;;;-3.50;99.90;;;;;;5071915;28;20484;-52
2021/12/08 01:28:10;;;;;;;5.50;2.05;;;-3.50;99.90;;;;;;5071967;28;20044;-53
2021/12/08 01:30:38;;;;;;;3.42;1.90;;;-3.60;99.90;;;;;;5071835;28;20045;-52
2021/12/08 01:33:05;;;;;;;4.72;2.00;;;-3.60;99.90;;;;;;5071933;28;20181;-55
2021/12/08 01:35:32;;;;;;;3.15;1.52;;;-3.60;99.90;;;;;;5071458;28;20074;-52
2021/12/08 01:37:59;;;;;;;3.33;1.60;;;-3.60;99.90;;;;;;5071832;28;20477;-54
2021/12/08 01:40:26;;;;;;;3.85;1.90;;;-3.60;99.90;;;;;;5071866;28;20467;-52
2021/12/08 01:42:56;;;;;;;2.30;1.23;;;-3.70;99.90;;;;;;5071618;28;20063;-51
2021/12/08 01:48:15;;;;;;;3.30;1.65;;;-3.70;99.90;;;;;;5053819;28;20485;-54
2021/12/08 01:50:44;;;;;;;3.03;1.23;;;-3.60;99.90;;;;;;5071588;28;20048;-52
2021/12/08 01:53:12;;;;;;;1.52;0.90;;;-3.50;99.90;;;;;;5071554;28;20132;-55
2021/12/08 01:55:40;;;;;;;2.42;1.13;;;-3.50;99.90;;;;;;5071588;28;20045;-54
2021/12/08 01:58:08;;;;;;;3.95;1.52;;;-3.50;99.90;;;;;;5071658;28;20036;-52
2021/12/08 02:00:48;;;;;;;2.80;1.48;;;-3.50;99.90;;;;;;5071278;28;20058;-53
2021/12/08 02:03:21;;;;;;;5.30;1.85;;;-3.50;99.90;;;;;;5053900;28;20480;-54
2021/12/08 02:05:49;;;;;;;3.10;1.27;;;-3.50;99.90;;;;;;5070990;28;20515;-56
2021/12/08 02:08:17;;;;;;;3.33;1.60;;;-3.60;99.90;;;;;;5071326;28;20052;-52
2021/12/08 02:10:44;;;;;;;5.70;1.38;;;-3.60;99.90;;;;;;5071488;28;20044;-55
2021/12/08 02:13:11;;;;;;;1.85;0.88;;;-3.60;99.90;;;;;;5070984;28;20122;-54
2021/12/08 02:15:39;;;;;;;;;;;-3.60;99.90;;;;;;5071507;28;20041;-55
2021/12/08 02:18:11;;;;;;;6.10;2.00;;;-3.60;99.90;;;;;;5071368;28;19959;-53
2021/12/08 02:20:39;;;;;;;3.42;1.63;;;-3.70;99.90;;;;;;5071396;28;20075;-54
2021/12/08 02:23:06;;;;;;;5.22;2.05;;;-3.70;99.90;;;;;;5071196;28;20040;-55
2021/12/08 02:25:34;;;;;;;;;;;-3.70;99.90;;;;;;5071356;28;20040;-53
2021/12/08 02:28:04;;;;;;;2.38;1.65;;;-3.70;99.90;;;;;;5071451;28;19924;-55
2021/12/08 02:30:40;;;;;;;3.50;1.63;;;-3.70;99.90;;;;;;5071244;28;20043;-52
2021/12/08 02:47:18;;;;;;;7.30;1.25;;;-3.50;99.90;;;;;;5070709;28;20053;-53
2021/12/08 02:49:44;;;;;;;5.20;1.40;;;-3.30;99.90;;;;;;5071054;28;20048;-54
2021/12/08 02:52:14;;;;;;;4.35;1.70;;;-3.20;99.90;;;;;;5071124;28;20054;-53
2021/12/08 02:54:47;;;;;;;3.03;1.65;;;-3.00;99.90;;;;;;5071106;28;20177;-53
2021/12/08 02:57:16;;;;;;;3.67;1.60;;;-3.00;99.90;;;;;;5070598;28;20045;-53
2021/12/08 02:59:45;;;;;;;3.58;1.75;;;-2.90;99.90;;;;;;5068440;28;20048;-57
2021/12/08 03:02:13;;;;;;;3.15;1.40;;;-2.80;99.90;;;;;;5067340;28;20068;-56
2021/12/08 03:04:40;;;;;;;4.18;1.63;;;-2.80;99.90;;;;;;5071007;28;20044;-56
2021/12/08 03:07:08;;;;;;;5.88;1.90;;;-2.80;99.90;;;;;;5070362;28;20098;-55
2021/12/08 03:09:35;;;;;;;3.63;1.75;;;-2.80;99.90;;;;;;5070990;28;20076;-56
2021/12/08 03:12:04;;;;;;;3.90;1.60;;;-2.90;99.90;;;;;;5070888;28;20040;-56
2021/12/08 03:14:31;;;;;;;4.53;1.85;;;-2.90;99.90;;;;;;5070682;28;20118;-55
2021/12/08 03:17:02;;;;;;;2.72;1.70;;;-2.90;99.90;;;;;;5070290;28;20044;-56
2021/12/08 03:19:30;;;;;;;6.85;1.90;;;-2.90;99.90;;;;;;5071097;28;20040;-53
2021/12/08 03:21:58;;;;;;;3.83;2.22;;;-2.90;99.90;;;;;;5070802;28;20091;-54
2021/12/08 03:24:30;;;;;;;5.43;1.67;;;-2.90;99.90;;;;;;5071297;28;20056;-54
2021/12/08 03:27:08;;;;;;;5.25;1.80;;;-2.90;99.90;;;;;;5073625;28;20056;-57
2021/12/08 03:32:13;;;;;;;2.78;1.60;;;-2.90;99.90;;;;;;5074232;28;20037;-57
2021/12/08 03:34:49;;;;;;;4.35;2.00;;;-2.90;99.90;;;;;;5074094;28;20123;-53
2021/12/08 03:37:18;;;;;;;3.50;1.95;;;-2.90;99.90;;;;;;5073686;28;20032;-57
2021/12/08 03:39:45;;;;;;;4.15;2.00;;;-2.80;99.90;;;;;;5073762;28;20114;-55
2021/12/08 03:42:12;;;;;;;6.15;1.65;;;-2.80;99.90;;;;;;5074130;28;20044;-52
2021/12/08 03:44:40;;;;;;;3.90;2.10;;;-2.80;99.90;;;;;;5074100;28;20099;-54
2021/12/08 03:47:17;;;;;;;5.50;2.17;;;-2.90;99.90;;;;;;5073213;28;20098;-55
2021/12/08 03:49:46;;;;;;;3.33;2.00;;;-2.80;99.90;;;;;;5073773;28;20048;-55
2021/12/08 03:52:14;;;;;;;4.22;2.08;;;-2.80;99.90;;;;;;5074089;28;20492;-54
2021/12/08 03:54:40;;;;;;;3.90;2.15;;;-2.80;99.90;;;;;;5073750;28;20045;-55
2021/12/08 03:57:07;;;;;;;6.70;2.45;;;-2.70;99.90;;;;;;5073352;28;20040;-54
2021/12/08 03:59:34;;;;;;;3.22;1.90;;;-2.70;99.90;;;;;;5073631;28;20103;-55
2021/12/08 04:02:02;;;;;;;7.57;2.25;;;-2.70;99.90;;;;;;5073540;28;20048;-54
2021/12/08 04:04:30;;;;;;;4.28;2.13;;;-2.60;99.90;;;;;;5073567;28;20036;-56
2021/12/08 04:07:02;;;;;;;8.15;3.08;;;-2.60;99.90;;;;;;5073118;28;20076;-55
2021/12/08 04:09:38;;;;;;;6.70;2.30;;;-2.60;99.90;;;;;;5073336;28;20040;-54
2021/12/08 04:12:06;;;;;;;6.47;2.20;;;-2.50;99.90;;;;;;5073505;28;20428;-56
2021/12/08 04:14:44;;;;;;;6.18;2.20;;;-2.50;99.90;;;;;;5073366;28;20753;-53
2021/12/08 04:17:17;;;;;;;;;;;-2.40;99.90;;;;;;5073224;28;20059;-54
2021/12/08 04:19:46;;;;;;;4.22;2.00;;;-2.40;99.90;;;;;;5072684;28;19921;-53
2021/12/08 04:22:18;;;;;;;2.90;1.80;;;-2.40;99.90;;;;;;5072282;28;20495;-56
2021/12/08 04:24:47;;;;;;;6.78;2.22;;;-2.40;99.90;;;;;;5072783;28;20040;-55
2021/12/08 04:27:19;;;;;;;3.17;1.77;;;-2.40;99.90;;;;;;5072553;28;20045;-53
2021/12/08 04:29:48;;;;;;;6.47;1.88;;;-2.40;99.90;;;;;;5073191;28;20113;-56
2021/12/08 04:32:17;;;;;;;4.28;2.00;;;-2.30;99.90;;;;;;5072857;28;20048;-56
2021/12/08 04:34:48;;;;;;;8.05;2.67;;;-2.40;99.90;;;;;;5073068;28;20075;-57
2021/12/08 04:37:23;;;;;;;3.75;2.13;;;-2.40;99.90;;;;;;5072456;28;20045;-53
2021/12/08 04:45:28;;;;;;;4.07;1.88;;;-2.40;99.90;;;;;;5072518;28;20083;-55
2021/12/08 04:50:50;;;;;;;4.10;1.83;;;-2.70;99.90;;;;;;5072829;28;20101;-55
2021/12/08 04:53:37;;;;;;;4.93;1.83;;;-2.80;99.90;;;;;;5072698;28;20078;-54
2021/12/08 05:07:28;;;;;;;3.65;1.60;;;-2.80;99.90;;;;;;5072097;28;20408;-53
2021/12/08 05:09:56;;;;;;;3.58;1.33;;;-2.80;99.90;;;;;;5072149;28;20488;-57
2021/12/08 05:12:29;;;;;;;2.90;1.15;;;-2.80;99.90;;;;;;5072327;28;20048;-56
2021/12/08 05:15:06;;;;;;;1.77;0.95;;;-2.80;99.90;;;;;;5072047;28;20119;-54
2021/12/08 05:17:36;;;;;;;2.90;1.05;;;-2.80;99.90;;;;;;5072073;28;20451;-53
2021/12/08 05:20:21;;;;;;;1.85;1.17;;;-2.80;99.90;;;;;;5072448;28;20040;-56
2021/12/08 05:22:59;;;;;;;4.78;1.30;;;-2.70;99.90;;;;;;5072572;28;20094;-57
2021/12/08 05:25:28;;;;;;;;;;;-2.70;99.90;;;;;;5072155;28;20084;-54
2021/12/08 05:27:58;;;;;;;3.55;1.73;;;-2.70;99.90;;;;;;5054235;28;19924;-56
2021/12/08 05:30:39;;;;;;;3.90;1.52;;;-2.70;99.90;;;;;;5071931;28;20508;-56
2021/12/08 05:33:09;;;;;;;4.18;1.20;;;-2.60;99.90;;;;;;5071992;28;20048;-56
2021/12/08 05:35:39;;;;;;;5.03;1.40;;;-2.60;99.90;;;;;;5071529;28;20127;-52
2021/12/08 05:38:08;;;;;;;2.55;1.40;;;-2.60;99.90;;;;;;5073006;28;20048;-96
2021/12/08 05:41:00;;;;;;;4.05;1.42;;;-2.60;99.90;;;;;;5089173;28;20048;-59
2021/12/08 05:43:27;;;;;;;3.28;1.60;;;-2.60;99.90;;;;;;5091944;28;20113;-59
2021/12/08 05:45:55;;;;;;;5.88;1.80;;;-2.60;99.90;;;;;;5082505;28;20510;-60
2021/12/08 05:48:22;;;;;;;4.90;1.75;;;-2.50;99.90;;;;;;5075593;28;20048;-59
2021/12/08 05:51:03;;;;;;;3.20;1.95;;;-2.50;99.90;;;;;;5091759;28;20055;-60
2021/12/08 05:53:31;;;;;;;4.00;1.85;;;-2.40;99.90;;;;;;5091989;28;20048;-60
2021/12/08 05:56:00;;;;;;;2.85;1.85;;;-2.30;99.90;;;;;;5091348;28;20746;-59
2021/12/08 05:58:28;;;;;;;4.72;2.00;;;-2.30;99.90;;;;;;5091739;28;20028;-59
2021/12/08 06:01:00;;;;;;;5.53;2.30;;;-2.30;99.90;;;;;;5106993;27;20117;-59
2021/12/08 06:03:27;;;;;;;8.88;4.93;;;-2.30;99.90;;;;;;5132444;27;20100;-59
2021/12/08 06:05:55;;;;;;;6.50;3.70;;;-2.30;99.90;;;;;;5132203;27;20706;-59
2021/12/08 06:08:23;;;;;;;5.50;2.33;;;-2.30;99.90;;;;;;5132448;27;20119;-59
2021/12/08 06:10:50;;;;;;;;;;;-2.30;99.90;;;;;;5131797;27;20043;-59
2021/12/08 06:13:18;;;;;;;4.55;2.50;;;-2.30;99.90;;;;;;5132756;28;19919;-59
2021/12/08 06:15:46;;;;;;;11.18;2.67;;;-2.30;99.90;;;;;;5131927;28;20039;-59
2021/12/08 06:18:15;;;;;;;4.00;1.95;;;-2.30;99.90;;;;;;5132350;28;20122;-59
2021/12/08 06:20:42;;;;;;;8.27;3.13;;;-2.30;99.90;;;;;;5131967;28;20048;-59
2021/12/08 06:23:10;;;;;;;5.80;2.60;;;-2.30;99.90;;;;;;5132402;28;20042;-59
2021/12/08 06:25:38;;;;;;;6.20;2.60;;;-2.20;99.90;;;;;;5131894;28;20047;-59
2021/12/08 06:28:07;;;;;;;17.88;7.85;;;-2.20;99.90;;;;;;5120496;28;20491;-58
2021/12/08 06:30:38;;;;;;;5.50;3.20;;;-2.30;99.90;;;;;;5101068;28;20434;-59
2021/12/08 06:33:08;;;;;;;4.75;2.75;;;-2.30;99.90;;;;;;5111088;28;20106;-59
2021/12/08 06:35:40;;;;;;;;;;;-2.30;99.90;;;;;;5111252;28;20441;-58
2021/12/08 06:38:09;;;;;;;11.07;3.45;;;-2.40;99.90;;;;;;5111503;28;20061;-60
2021/12/08 06:40:44;;;;;;;10.05;3.83;;;-2.40;99.90;;;;;;5111514;28;20437;-60
2021/12/08 06:43:20;;;;;;;9.00;3.30;;;-2.40;99.90;;;;;;5111160;28;20083;-60
2021/12/08 06:45:50;;;;;;;9.23;3.63;;;-2.40;99.90;;;;;;5111370;28;20043;-60
2021/12/08 06:48:21;;;;;;;15.10;6.70;;;-2.40;99.90;;;;;;5111148;28;20044;-60
2021/12/08 06:50:59;;;;;;;10.55;6.32;;;-2.40;99.90;;;;;;5093346;28;20718;-60
2021/12/08 06:53:27;;;;;;;;;;;-2.30;99.90;;;;;;5112101;28;20059;-60
2021/12/08 06:56:01;;;;;;;8.32;4.55;;;-2.30;99.90;;;;;;5111053;28;19919;-60
2021/12/08 06:58:32;;;;;;;12.65;6.03;;;-2.20;99.90;;;;;;5112240;28;20067;-59
2021/12/08 07:06:40;;;;;;;13.10;6.90;;;-2.10;99.90;;;;;;5115072;28;20063;-60
2021/12/08 07:09:10;;;;;;;26.88;8.90;;;-2.10;99.90;;;;;;5115246;28;20050;-60
2021/12/08 07:11:38;;;;;;;19.95;7.05;;;-2.00;99.90;;;;;;5115212;28;20035;-60
2021/12/08 07:14:04;;;;;;;16.08;5.25;;;-2.00;99.90;;;;;;5115035;28;20449;-59
2021/12/08 07:16:42;;;;;;;10.93;4.60;;;-1.90;99.90;;;;;;5121699;27;20487;-60
2021/12/08 07:19:24;;;;;;;13.00;5.18;;;-1.90;99.90;;;;;;5135295;27;20123;-60
2021/12/08 07:21:52;;;;;;;14.63;6.40;;;-1.90;99.90;;;;;;5130218;27;20170;-60
2021/12/08 07:24:29;;;;;;;9.23;4.38;;;-1.90;99.90;;;;;;5135025;27;20039;-60
2021/12/08 07:27:01;;;;;;;7.97;3.97;;;-1.80;99.90;;;;;;5131213;27;20084;-60
2021/12/08 07:29:33;;;;;;;8.65;4.15;;;-1.80;99.90;;;;;;5134638;27;20066;-60
2021/12/08 07:32:12;;;;;;;12.63;5.07;;;-1.70;99.90;;;;;;5135041;27;20491;-60
2021/12/08 07:34:40;;;;;;;13.70;4.95;;;-1.60;99.90;;;;;;5132425;27;20096;-60
2021/12/08 07:37:13;;;;;;;10.07;4.97;;;-1.60;99.90;;;;;;5113239;27;20092;-60
2021/12/08 07:39:50;;;;;;;9.30;5.07;;;-1.70;99.90;;;;;;5126476;27;20696;-60
2021/12/08 07:42:31;;;;;;;8.48;3.78;;;-1.70;99.90;;;;;;5113153;27;20073;-60
2021/12/08 07:45:02;;;;;;;13.98;4.43;;;-1.80;99.90;;;;;;5113731;28;20047;-60
2021/12/08 07:47:30;;;;;;;7.70;4.43;;;-1.70;99.90;;;;;;5114375;28;20051;-60
2021/12/08 07:50:17;;;;;;;9.70;4.38;;;-1.70;99.90;;;;;;5114147;27;20040;-60
2021/12/08 07:52:47;;;;;;;12.13;5.72;;;-1.60;99.90;;;;;;5129413;27;20088;-60
2021/12/08 07:55:22;;;;;;;16.73;7.47;;;-1.50;99.90;;;;;;5134216;27;20039;-60
2021/12/08 07:57:50;;;;;;;13.07;5.90;;;-1.50;99.90;;;;;;5130560;27;20100;-60
2021/12/08 08:00:29;;;;;;;6.60;3.58;;;-1.60;99.90;;;;;;5134355;27;20043;-59
2021/12/08 08:02:56;;;;;;;10.02;3.10;;;-1.50;99.90;;;;;;5132178;27;20049;-60
2021/12/08 08:05:28;;;;;;;8.07;3.40;;;-1.30;99.90;;;;;;5133915;27;20043;-60
2021/12/08 08:08:03;;;;;;;7.18;3.40;;;-1.20;99.90;;;;;;5134201;27;20415;-59
2021/12/08 08:10:33;;;;;;;7.72;3.70;;;-1.10;99.90;;;;;;5131270;27;20039;-60
2021/12/08 08:13:02;;;;;;;9.10;4.88;;;-1.10;99.90;;;;;;5134752;27;20047;-60
2021/12/08 08:15:36;;;;;;;7.32;3.70;;;-1.10;99.90;;;;;;5115529;27;20521;-59
2021/12/08 08:18:08;;;;;;;8.77;4.00;;;-1.10;99.90;;;;;;5116180;27;20043;-60
2021/12/08 08:20:40;;;;;;;8.75;3.67;;;-1.20;99.90;;;;;;5134600;27;20083;-59
2021/12/08 08:23:07;;;;;;;9.02;4.30;;;-1.20;99.90;;;;;;5130848;27;20039;-60
2021/12/08 08:25:38;;;;;;;8.00;4.05;;;-1.30;99.90;;;;;;5122857;27;20089;-59
2021/12/08 08:28:06;;;;;;;6.45;3.40;;;-1.30;99.90;;;;;;5106202;27;20439;-59
2021/12/08 08:30:45;;;;;;;7.30;3.40;;;-1.30;99.90;;;;;;5117346;27;20053;-60
2021/12/08 08:33:14;;;;;;;8.85;3.63;;;-1.30;99.90;;;;;;5133756;27;20088;-60
2021/12/08 08:35:46;;;;;;;8.20;3.20;;;-1.30;99.90;;;;;;5133816;27;20441;-60
2021/12/08 08:38:30;;;;;;;8.57;4.00;;;-1.30;99.90;;;;;;5134133;27;20399;-59
2021/12/08 08:41:02;;;;;;;10.25;4.20;;;-1.20;99.90;;;;;;5134121;27;20463;-59
2021/12/08 08:43:29;;;;;;;9.55;4.80;;;-1.10;99.90;;;;;;5134096;27;20072;-59
2021/12/08 08:46:04;;;;;;;13.70;5.32;;;-1.10;99.90;;;;;;5115079;27;20135;-59
2021/12/08 08:48:38;;;;;;;13.57;4.50;;;-1.00;99.90;;;;;;5133399;27;20457;-59
2021/12/08 08:51:28;;;;;;;8.13;3.83;;;-1.00;99.90;;;;;;5108350;27;20043;-59
2021/12/08 08:53:59;;;;;;;13.43;5.25;;;-0.90;99.90;;;;;;5121107;27;20101;-59
2021/12/08 08:56:34;;;;;;;11.32;5.22;;;-0.90;99.90;;;;;;5132853;27;20077;-60
2021/12/08 08:59:07;;;;;;;12.10;5.68;;;-0.80;99.90;;;;;;5133241;27;20088;-59
2021/12/08 09:01:40;;;;;;;14.45;6.65;;;-0.80;99.90;;;;;;5133712;27;20540;-59
2021/12/08 09:04:12;;;;;;;16.90;7.05;;;-0.80;99.90;;;;;;5133751;27;20091;-59
2021/12/08 09:06:44;;;;;;;30.27;9.93;;;-0.70;99.90;;;;;;5132329;27;20050;-59
2021/12/08 09:09:20;;;;;;;11.27;5.10;;;-0.70;99.90;;;;;;5132787;27;20058;-59
2021/12/08 09:12:04;;;;;;;6.30;3.15;;;-0.70;99.90;;;;;;5132436;27;20053;-59
2021/12/08 09:14:46;;;;;;;10.07;4.63;;;-0.70;99.90;;;;;;5133268;27;20047;-59
2021/12/08 09:17:21;;;;;;;10.27;4.65;;;-0.80;99.90;;;;;;5133061;27;20086;-59
2021/12/08 09:20:15;;;;;;;8.63;4.30;;;-0.70;99.90;;;;;;5133431;27;20047;-59
2021/12/08 09:22:56;;;;;;;15.93;6.55;;;-0.60;99.90;;;;;;5086353;27;20067;-59
2021/12/08 09:25:35;;;;;;;9.05;4.82;;;-0.40;99.90;;;;;;5132622;27;20092;-59
2021/12/08 09:28:15;;;;;;;8.57;3.97;;;-0.30;99.90;;;;;;5132942;27;20043;-59
2021/12/08 09:30:50;;;;;;;11.70;5.45;;;-0.30;99.90;;;;;;5133238;27;20096;-59
2021/12/08 09:33:23;;;;;;;11.98;5.00;;;-0.30;99.90;;;;;;5133123;27;20039;-59
2021/12/08 09:35:55;;;;;;;7.95;3.90;;;-0.30;99.90;;;;;;5132571;27;20096;-59
2021/12/08 09:38:34;;;;;;;10.25;4.75;;;-0.20;99.90;;;;;;5132882;27;20043;-59
2021/12/08 09:41:19;;;;;;;9.65;4.55;;;-0.20;99.90;;;;;;5133118;27;20055;-59
2021/12/08 09:43:52;;;;;;;7.70;4.00;;;0.00;99.90;;;;;;5133045;27;20039;-59
2021/12/08 09:46:27;;;;;;;10.73;4.68;;;-0.10;99.90;;;;;;5132317;27;20088;-59
2021/12/08 09:49:00;;;;;;;12.85;5.05;;;0.00;99.90;;;;;;5132855;27;20043;-59
2021/12/08 09:51:28;;;;;;;8.93;4.80;;;0.10;99.90;;;;;;5132916;27;20038;-59
2021/12/08 09:53:56;;;;;;;11.77;5.30;;;0.20;99.90;;;;;;5132526;27;20073;-59
2021/12/08 09:56:24;;;;;;;13.63;4.65;;;0.40;99.90;;;;;;5132425;27;20068;-59
2021/12/08 09:58:52;;;;;;;10.32;4.78;;;0.40;99.90;;;;;;5132659;27;20055;-59
2021/12/08 10:01:21;;;;;;;10.15;3.88;;;0.40;99.90;;;;;;5132634;27;20043;-59
2021/12/08 10:03:51;;;;;;;12.65;5.18;;;0.50;99.90;;;;;;5132647;27;20039;-59
2021/12/08 10:06:20;;;;;;;9.38;4.60;;;0.50;99.90;;;;;;5132290;27;20042;-59
2021/12/08 10:08:48;;;;;;;10.27;5.68;;;0.60;99.90;;;;;;5132276;27;20170;-59
2021/12/08 10:11:17;;;;;;;10.27;5.50;;;0.70;99.90;;;;;;5132534;27;20043;-59
2021/12/08 10:13:45;;;;;;;14.32;5.28;;;0.80;99.90;;;;;;5132629;28;20460;-60
2021/12/08 10:16:16;;;;;;;11.55;5.40;;;0.90;99.90;;;;;;5132144;28;20059;-59
2021/12/08 10:18:44;;;;;;;9.63;4.97;;;0.90;99.90;;;;;;5132370;28;20517;-59
2021/12/08 10:21:13;;;;;;;11.02;5.88;;;0.90;99.90;;;;;;5132456;28;20095;-59
2021/12/08 10:23:43;;;;;;;9.20;4.70;;;0.90;99.90;;;;;;5132358;28;20054;-59
2021/12/08 10:26:15;;;;;;;13.75;4.53;;;0.80;99.90;;;;;;5131898;28;20050;-59
2021/12/08 10:28:46;;;;;;;9.82;4.43;;;0.80;99.90;;;;;;5132449;28;20039;-59
2021/12/08 10:31:16;;;;;;;12.15;4.70;;;0.70;99.90;;;;;;5132521;28;20460;-59
2021/12/08 10:36:46;;;;;;;15.38;7.10;;;0.70;99.90;;;;;;5136211;27;20538;-59
2021/12/08 10:39:28;;;;;;;12.73;5.60;;;0.60;99.90;;;;;;5136390;27;20049;-60
2021/12/08 10:42:23;;;;;;;14.10;5.05;;;0.60;99.90;;;;;;5136379;27;20094;-59
2021/12/08 10:45:12;;;;;;;9.75;4.90;;;0.60;99.90;;;;;;5136427;27;20053;-59
2021/12/08 10:47:44;;;;;;;;;;;0.60;99.90;;;;;;5136931;27;20050;-59
2021/12/08 10:55:57;;;;;;;9.10;5.03;;;0.60;99.90;;;;;;5135757;27;20057;-60
2021/12/08 10:58:30;;;;;;;10.75;4.47;;;0.70;99.90;;;;;;5136181;27;20039;-60
2021/12/08 11:01:07;;;;;;;11.48;5.03;;;0.60;99.90;;;;;;5136074;27;20060;-60
2021/12/08 11:03:36;;;;;;;11.82;4.75;;;0.60;99.90;;;;;;5136084;27;20127;-60
2021/12/08 11:06:04;;;;;;;8.45;4.53;;;0.80;99.90;;;;;;5135449;27;20050;-60
2021/12/08 11:08:36;;;;;;;12.52;4.90;;;0.70;99.90;;;;;;5135755;27;20051;-60
2021/12/08 11:11:07;;;;;;;11.15;5.20;;;0.80;99.90;;;;;;5135847;27;20122;-60
2021/12/08 11:13:38;;;;;;;9.02;5.40;;;1.00;99.90;;;;;;5135755;27;20088;-60
2021/12/08 11:16:13;;;;;;;13.88;5.95;;;1.10;99.90;;;;;;5135445;27;20050;-60
2021/12/08 11:18:43;;;;;;;17.92;7.45;;;1.20;99.90;;;;;;5135715;27;20047;-60
2021/12/08 11:21:18;;;;;;;13.07;6.88;;;1.20;99.90;;;;;;5135465;27;20134;-60
2021/12/08 11:24:14;;;;;;;9.10;5.10;;;1.20;99.90;;;;;;5135859;27;20406;-60
2021/12/08 11:26:46;;;;;;;10.23;4.95;;;1.30;99.90;;;;;;5135138;27;20081;-60
2021/12/08 11:29:18;;;;;;;10.65;5.07;;;1.30;99.90;;;;;;5135499;27;20043;-60
2021/12/08 11:32:02;;;;;;;10.70;5.15;;;1.30;99.90;;;;;;5135460;27;20491;-60
2021/12/08 11:34:38;;;;;;;12.68;5.55;;;1.30;99.90;;;;;;5135203;27;20103;-60
2021/12/08 11:37:13;;;;;;;11.38;4.85;;;1.20;99.90;;;;;;5135032;27;20118;-60
2021/12/08 11:39:47;;;;;;;10.80;5.10;;;1.30;99.90;;;;;;5129174;22;20562;-60
2021/12/08 11:43:20;;;;;;;9.05;5.15;;;1.30;99.90;;;;;;5093824;28;20050;-60
2021/12/08 11:45:47;;;;;;;10.50;4.97;;;1.20;99.90;;;;;;5092505;28;20097;-60
2021/12/08 11:48:26;;;;;;;8.75;5.10;;;1.10;99.90;;;;;;5094106;28;20040;-60
2021/12/08 11:51:07;;;;;;;11.48;4.97;;;1.00;99.90;;;;;;5067237;28;20040;-60
2021/12/08 11:53:39;;;;;;;9.15;5.53;;;1.00;99.90;;;;;;5055903;28;20051;-60
2021/12/08 11:56:07;;;;;;;11.57;5.82;;;1.00;99.90;;;;;;5053359;28;20037;-60
2021/12/08 11:58:34;;;;;;;12.50;5.60;;;1.10;99.90;;;;;;5053735;28;20052;-60
2021/12/08 12:01:02;;;;;;;10.95;5.47;;;1.20;99.90;;;;;;5066596;28;20057;-60
2021/12/08 12:03:30;;;;;;;14.38;6.75;;;1.30;99.90;;;;;;5073234;28;20049;-60
2021/12/08 12:05:57;;;;;;;13.82;7.70;;;1.40;99.90;;;;;;5072691;28;20040;-60
2021/12/08 12:08:24;;;;;;;12.90;5.88;;;1.40;99.90;;;;;;5073332;28;20068;-60
2021/12/08 12:10:54;;;;;;;13.18;5.85;;;1.40;99.90;;;;;;5073467;28;20052;-60
2021/12/08 12:13:21;;;;;;;12.88;5.80;;;1.40;99.90;;;;;;5073192;28;20110;-60
2021/12/08 12:15:49;;;;;;;12.13;5.78;;;1.50;99.90;;;;;;5073018;28;20101;-60
2021/12/08 12:18:18;;;;;;;10.00;5.38;;;1.60;99.90;;;;;;5073062;28;20119;-60
2021/12/08 12:21:03;;;;;;;9.93;6.03;;;1.90;99.90;;;;;;5073247;28;20118;-60
2021/12/08 12:23:54;;;;;;;10.50;5.47;;;2.00;99.90;;;;;;5073027;28;20045;-60
2021/12/08 12:26:41;;;;;;;9.10;5.20;;;2.10;99.90;;;;;;5072533;28;20102;-60
2021/12/08 12:29:21;;;;;;;11.45;5.40;;;2.20;99.90;;;;;;5073121;28;20068;-60
2021/12/08 12:31:54;;;;;;;10.77;5.30;;;2.20;99.90;;;;;;5073015;28;20106;-60
2021/12/08 12:34:33;;;;;;;13.73;6.28;;;2.10;99.90;;;;;;5072964;28;20044;-60
2021/12/08 12:37:13;;;;;;;12.93;6.15;;;1.90;99.90;;;;;;5072206;28;20496;-60
2021/12/08 12:39:55;;;;;;;11.95;5.28;;;1.70;99.90;;;;;;5072651;28;20045;-60
2021/12/08 12:42:24;;;;;;;12.95;6.10;;;1.70;99.90;;;;;;5072728;28;20106;-60
2021/12/08 12:44:57;;;;;;;11.77;5.70;;;1.60;99.90;;;;;;5072779;28;20048;-60
2021/12/08 12:47:29;;;;;;;11.27;5.93;;;1.50;99.90;;;;;;5072216;28;20569;-60
2021/12/08 12:50:15;;;;;;;8.65;5.18;;;1.50;99.90;;;;;;5072731;28;20036;-60
2021/12/08 12:52:59;;;;;;;18.67;6.05;;;1.40;99.90;;;;;;5072786;28;20052;-60
2021/12/08 12:55:28;;;;;;;10.13;5.00;;;1.30;99.90;;;;;;5072339;28;20045;-60
2021/12/08 12:58:04;;;;;;;12.93;6.00;;;1.40;99.90;;;;;;5072265;28;20052;-60
2021/12/08 13:00:31;;;;;;;10.02;5.40;;;1.40;99.90;;;;;;5072527;28;20484;-60
2021/12/08 13:02:58;;;;;;;10.95;5.70;;;1.50;99.90;;;;;;5072255;28;20072;-60
2021/12/08 13:05:47;;;;;;;;;;;1.70;99.90;;;;;;5072426;28;20044;-60
2021/12/08 13:08:32;;;;;;;10.88;4.80;;;2.00;99.90;;;;;;5072351;28;19924;-60
2021/12/08 13:11:10;;;;;;;8.43;4.18;;;2.00;99.90;;;;;;5072179;28;20123;-60
2021/12/08 13:13:48;;;;;;;10.90;4.80;;;2.00;99.90;;;;;;5072353;28;20051;-61
2021/12/08 13:16:24;;;;;;;10.48;5.15;;;2.00;99.90;;;;;;5071863;28;20500;-60
2021/12/08 13:19:00;;;;;;;9.13;4.88;;;2.00;99.90;;;;;;5072190;28;20147;-60
2021/12/08 13:21:48;;;;;;;21.77;10.48;;;1.90;99.90;;;;;;5054273;28;20435;-60
2021/12/08 13:24:31;;;;;;;16.15;8.25;;;1.70;99.90;;;;;;5071866;28;20044;-60
2021/12/08 13:27:10;;;;;;;25.85;12.77;;;1.50;99.90;;;;;;5071545;28;20518;-60
2021/12/08 13:29:45;;;;;;;57.40;22.20;;;1.40;99.90;;;;;;5072018;28;20511;-60
2021/12/08 13:32:16;;;;;;;42.67;18.95;;;1.30;99.90;;;;;;5071960;28;20055;-60
2021/12/08 13:34:58;;;;;;;76.28;33.92;;;1.30;99.90;;;;;;5071887;28;20040;-60
2021/12/08 13:37:29;;;;;;;24.05;10.98;;;1.30;99.90;;;;;;5071440;28;20037;-60
2021/12/08 13:40:06;;;;;;;21.70;9.40;;;1.20;99.90;;;;;;5071764;28;20052;-60
2021/12/08 13:42:50;;;;;;;43.70;21.38;;;1.10;99.90;;;;;;5071837;28;20044;-60
2021/12/08 13:45:17;;;;;;;16.40;7.65;;;1.10;99.90;;;;;;5071431;28;20244;-60
2021/12/08 13:47:47;;;;;;;13.07;7.40;;;0.90;99.90;;;;;;5071616;28;20074;-60
2021/12/08 13:50:22;;;;;;;21.48;10.20;;;0.80;99.90;;;;;;5071495;28;20037;-60
2021/12/08 13:53:05;;;;;;;34.55;16.75;;;0.80;99.90;;;;;;5071687;28;20066;-60
2021/12/08 13:55:44;;;;;;;36.72;16.27;;;0.80;99.90;;;;;;5053258;28;20409;-60
2021/12/08 13:58:15;;;;;;;41.00;18.30;;;0.70;99.90;;;;;;5071785;28;20078;-60
2021/12/08 14:00:52;;;;;;;68.60;28.20;;;0.70;99.90;;;;;;5072192;28;20404;-60
2021/12/08 14:03:39;;;;;;;34.33;16.65;;;0.80;99.90;;;;;;5071400;28;20052;-60
2021/12/08 14:06:08;;;;;;;29.42;12.63;;;0.80;99.90;;;;;;5071194;28;20044;-60
2021/12/08 14:08:45;;;;;;;36.78;15.68;;;0.90;99.90;;;;;;5070623;28;20068;-60
2021/12/08 14:11:14;;;;;;;22.33;11.00;;;0.90;99.90;;;;;;5071536;28;20051;-60